sensor_id;sensor_type;location;lat;lon;timestamp;P1;durP1;ratioP1;P2;durP2;ratioP2
19543;SDS011;9917;51.256;7.152;2023-06-10T00:00:40;9.65;;;7.43;;
19543;SDS011;9917;51.256;7.152;2023-06-10T00:03:08;10.43;;;7.53;;
19543;SDS011;9917;51.256;7.152;2023-06-10T00:05:33;10.02;;;6.93;;
19543;SDS011;9917;51.256;7.152;2023-06-10T00:07:59;11.40;;;7.70;;
19543;SDS011;9917;51.256;7.152;2023-06-10T00:10:25;13.57;;;7.70;;
19543;SDS011;9917;51.256;7.152;2023-06-10T00:12:51;11.05;;;6.93;;
19543;SDS011;9917;51.256;7.152;2023-06-10T00:15:17;9.32;;;7.28;;
19543;SDS011;9917;51.256;7.152;2023-06-10T00:17:43;10.88;;;7.30;;
19543;SDS011;9917;51.256;7.152;2023-06-10T00:20:11;9.45;;;7.25;;
19543;SDS011;9917;51.256;7.152;2023-06-10T00:22:38;8.77;;;6.90;;
19543;SDS011;9917;51.256;7.152;2023-06-10T00:25:04;9.15;;;7.35;;
19543;SDS011;9917;51.256;7.152;2023-06-10T00:27:30;10.35;;;7.53;;
19543;SDS011;9917;51.256;7.152;2023-06-10T00:29:56;9.48;;;7.25;;
19543;SDS011;9917;51.256;7.152;2023-06-10T00:32:22;9.63;;;7.47;;
19543;SDS011;9917;51.256;7.152;2023-06-10T00:34:47;9.85;;;7.40;;
19543;SDS011;9917;51.256;7.152;2023-06-10T00:37:14;9.68;;;7.28;;
19543;SDS011;9917;51.256;7.152;2023-06-10T00:39:40;12.35;;;7.30;;
19543;SDS011;9917;51.256;7.152;2023-06-10T00:42:06;18.92;;;7.50;;
19543;SDS011;9917;51.256;7.152;2023-06-10T00:44:33;8.60;;;7.07;;
19543;SDS011;9917;51.256;7.152;2023-06-10T00:46:58;9.50;;;7.30;;
19543;SDS011;9917;51.256;7.152;2023-06-10T00:49:24;9.10;;;7.47;;
19543;SDS011;9917;51.256;7.152;2023-06-10T00:51:51;10.75;;;7.82;;
19543;SDS011;9917;51.256;7.152;2023-06-10T00:54:18;8.80;;;7.20;;
19543;SDS011;9917;51.256;7.152;2023-06-10T00:56:44;9.57;;;7.18;;
19543;SDS011;9917;51.256;7.152;2023-06-10T00:59:11;9.13;;;7.38;;
19543;SDS011;9917;51.256;7.152;2023-06-10T01:01:37;10.73;;;7.00;;
19543;SDS011;9917;51.256;7.152;2023-06-10T01:04:03;10.57;;;7.32;;
19543;SDS011;9917;51.256;7.152;2023-06-10T01:06:30;9.38;;;7.13;;
19543;SDS011;9917;51.256;7.152;2023-06-10T01:09:06;11.13;;;7.40;;
19543;SDS011;9917;51.256;7.152;2023-06-10T01:11:44;10.98;;;7.43;;
19543;SDS011;9917;51.256;7.152;2023-06-10T01:14:13;8.13;;;6.72;;
19543;SDS011;9917;51.256;7.152;2023-06-10T01:16:39;10.88;;;7.72;;
19543;SDS011;9917;51.256;7.152;2023-06-10T01:19:05;9.25;;;6.40;;
19543;SDS011;9917;51.256;7.152;2023-06-10T01:21:32;9.32;;;7.45;;
19543;SDS011;9917;51.256;7.152;2023-06-10T01:23:58;9.95;;;8.05;;
19543;SDS011;9917;51.256;7.152;2023-06-10T01:26:24;8.73;;;7.10;;
19543;SDS011;9917;51.256;7.152;2023-06-10T01:28:54;9.38;;;7.13;;
19543;SDS011;9917;51.256;7.152;2023-06-10T01:31:27;10.63;;;7.75;;
19543;SDS011;9917;51.256;7.152;2023-06-10T01:33:59;11.82;;;7.63;;
19543;SDS011;9917;51.256;7.152;2023-06-10T01:36:25;10.48;;;6.80;;
19543;SDS011;9917;51.256;7.152;2023-06-10T01:38:54;11.00;;;8.05;;
19543;SDS011;9917;51.256;7.152;2023-06-10T01:41:21;12.30;;;7.97;;
19543;SDS011;9917;51.256;7.152;2023-06-10T01:43:48;8.85;;;7.00;;
19543;SDS011;9917;51.256;7.152;2023-06-10T01:46:14;11.35;;;7.78;;
19543;SDS011;9917;51.256;7.152;2023-06-10T01:48:41;11.00;;;8.10;;
19543;SDS011;9917;51.256;7.152;2023-06-10T01:51:07;10.32;;;7.22;;
19543;SDS011;9917;51.256;7.152;2023-06-10T01:53:33;9.20;;;7.78;;
19543;SDS011;9917;51.256;7.152;2023-06-10T01:56:00;8.55;;;7.35;;
19543;SDS011;9917;51.256;7.152;2023-06-10T01:58:26;9.20;;;7.78;;
19543;SDS011;9917;51.256;7.152;2023-06-10T02:00:51;8.68;;;7.65;;
19543;SDS011;9917;51.256;7.152;2023-06-10T02:03:17;10.88;;;7.80;;
19543;SDS011;9917;51.256;7.152;2023-06-10T02:05:43;11.55;;;7.80;;
19543;SDS011;9917;51.256;7.152;2023-06-10T02:08:09;10.95;;;7.82;;
19543;SDS011;9917;51.256;7.152;2023-06-10T02:10:35;10.63;;;7.93;;
19543;SDS011;9917;51.256;7.152;2023-06-10T02:13:02;11.15;;;8.10;;
19543;SDS011;9917;51.256;7.152;2023-06-10T02:15:28;9.70;;;7.32;;
19543;SDS011;9917;51.256;7.152;2023-06-10T02:17:54;11.80;;;7.53;;
19543;SDS011;9917;51.256;7.152;2023-06-10T02:20:20;12.40;;;8.70;;
19543;SDS011;9917;51.256;7.152;2023-06-10T02:22:46;9.82;;;8.02;;
19543;SDS011;9917;51.256;7.152;2023-06-10T02:25:12;10.00;;;8.48;;
19543;SDS011;9917;51.256;7.152;2023-06-10T02:27:38;10.95;;;8.20;;
19543;SDS011;9917;51.256;7.152;2023-06-10T02:30:06;9.85;;;8.15;;
19543;SDS011;9917;51.256;7.152;2023-06-10T02:32:32;9.88;;;7.88;;
19543;SDS011;9917;51.256;7.152;2023-06-10T02:34:58;9.77;;;7.72;;
19543;SDS011;9917;51.256;7.152;2023-06-10T02:37:24;12.50;;;8.20;;
19543;SDS011;9917;51.256;7.152;2023-06-10T02:39:50;11.13;;;7.90;;
19543;SDS011;9917;51.256;7.152;2023-06-10T02:42:16;12.38;;;8.35;;
19543;SDS011;9917;51.256;7.152;2023-06-10T02:44:41;10.43;;;8.45;;
19543;SDS011;9917;51.256;7.152;2023-06-10T02:47:09;11.65;;;9.15;;
19543;SDS011;9917;51.256;7.152;2023-06-10T02:49:34;12.25;;;8.65;;
19543;SDS011;9917;51.256;7.152;2023-06-10T02:52:00;11.30;;;8.60;;
19543;SDS011;9917;51.256;7.152;2023-06-10T02:54:26;12.68;;;8.40;;
19543;SDS011;9917;51.256;7.152;2023-06-10T02:56:52;11.75;;;9.00;;
19543;SDS011;9917;51.256;7.152;2023-06-10T02:59:18;11.60;;;8.63;;
19543;SDS011;9917;51.256;7.152;2023-06-10T03:01:45;8.85;;;7.95;;
19543;SDS011;9917;51.256;7.152;2023-06-10T03:04:13;14.50;;;8.95;;
19543;SDS011;9917;51.256;7.152;2023-06-10T03:06:38;12.02;;;8.85;;
19543;SDS011;9917;51.256;7.152;2023-06-10T03:09:04;12.52;;;9.18;;
19543;SDS011;9917;51.256;7.152;2023-06-10T03:11:30;10.82;;;9.05;;
19543;SDS011;9917;51.256;7.152;2023-06-10T03:13:57;10.90;;;9.18;;
19543;SDS011;9917;51.256;7.152;2023-06-10T03:16:23;13.38;;;9.00;;
19543;SDS011;9917;51.256;7.152;2023-06-10T03:18:49;14.40;;;8.88;;
19543;SDS011;9917;51.256;7.152;2023-06-10T03:21:17;10.65;;;8.60;;
19543;SDS011;9917;51.256;7.152;2023-06-10T03:23:43;11.98;;;8.68;;
19543;SDS011;9917;51.256;7.152;2023-06-10T03:26:09;9.85;;;8.18;;
19543;SDS011;9917;51.256;7.152;2023-06-10T03:28:35;10.80;;;8.93;;
19543;SDS011;9917;51.256;7.152;2023-06-10T03:31:00;12.45;;;8.98;;
19543;SDS011;9917;51.256;7.152;2023-06-10T03:33:26;11.10;;;9.02;;
19543;SDS011;9917;51.256;7.152;2023-06-10T03:35:52;11.63;;;9.48;;
19543;SDS011;9917;51.256;7.152;2023-06-10T03:38:19;11.85;;;9.15;;
19543;SDS011;9917;51.256;7.152;2023-06-10T03:40:45;10.45;;;8.77;;
19543;SDS011;9917;51.256;7.152;2023-06-10T03:43:11;14.90;;;9.65;;
19543;SDS011;9917;51.256;7.152;2023-06-10T03:45:37;11.93;;;9.00;;
19543;SDS011;9917;51.256;7.152;2023-06-10T03:48:03;11.15;;;9.25;;
19543;SDS011;9917;51.256;7.152;2023-06-10T03:50:29;10.07;;;8.05;;
19543;SDS011;9917;51.256;7.152;2023-06-10T03:52:55;12.27;;;8.82;;
19543;SDS011;9917;51.256;7.152;2023-06-10T03:55:23;10.95;;;8.60;;
19543;SDS011;9917;51.256;7.152;2023-06-10T03:57:49;11.27;;;8.60;;
19543;SDS011;9917;51.256;7.152;2023-06-10T04:00:15;11.10;;;8.82;;
19543;SDS011;9917;51.256;7.152;2023-06-10T04:02:41;13.98;;;9.00;;
19543;SDS011;9917;51.256;7.152;2023-06-10T04:05:07;11.85;;;9.10;;
19543;SDS011;9917;51.256;7.152;2023-06-10T04:07:33;10.70;;;8.93;;
19543;SDS011;9917;51.256;7.152;2023-06-10T04:09:59;11.38;;;9.13;;
19543;SDS011;9917;51.256;7.152;2023-06-10T04:12:26;10.35;;;8.68;;
19543;SDS011;9917;51.256;7.152;2023-06-10T04:14:52;11.10;;;8.88;;
19543;SDS011;9917;51.256;7.152;2023-06-10T04:17:18;13.45;;;9.73;;
19543;SDS011;9917;51.256;7.152;2023-06-10T04:19:44;12.60;;;9.80;;
19543;SDS011;9917;51.256;7.152;2023-06-10T04:22:10;13.95;;;8.93;;
19543;SDS011;9917;51.256;7.152;2023-06-10T04:24:36;12.18;;;8.77;;
19543;SDS011;9917;51.256;7.152;2023-06-10T04:27:01;11.65;;;8.85;;
19543;SDS011;9917;51.256;7.152;2023-06-10T04:29:29;13.30;;;9.38;;
19543;SDS011;9917;51.256;7.152;2023-06-10T04:31:54;9.88;;;8.70;;
19543;SDS011;9917;51.256;7.152;2023-06-10T04:34:20;11.77;;;9.30;;
19543;SDS011;9917;51.256;7.152;2023-06-10T04:36:46;12.85;;;8.93;;
19543;SDS011;9917;51.256;7.152;2023-06-10T04:39:12;10.85;;;8.10;;
19543;SDS011;9917;51.256;7.152;2023-06-10T04:41:38;12.35;;;8.57;;
19543;SDS011;9917;51.256;7.152;2023-06-10T04:44:03;12.75;;;8.68;;
19543;SDS011;9917;51.256;7.152;2023-06-10T04:46:31;11.85;;;9.40;;
19543;SDS011;9917;51.256;7.152;2023-06-10T04:48:56;13.40;;;9.10;;
19543;SDS011;9917;51.256;7.152;2023-06-10T04:51:22;12.93;;;9.55;;
19543;SDS011;9917;51.256;7.152;2023-06-10T04:53:48;14.05;;;8.70;;
19543;SDS011;9917;51.256;7.152;2023-06-10T04:56:14;11.73;;;9.40;;
19543;SDS011;9917;51.256;7.152;2023-06-10T04:58:40;11.57;;;9.32;;
19543;SDS011;9917;51.256;7.152;2023-06-10T05:01:06;12.60;;;9.10;;
19543;SDS011;9917;51.256;7.152;2023-06-10T05:03:34;10.95;;;8.07;;
19543;SDS011;9917;51.256;7.152;2023-06-10T05:05:59;18.95;;;11.82;;
19543;SDS011;9917;51.256;7.152;2023-06-10T05:08:25;10.55;;;8.10;;
19543;SDS011;9917;51.256;7.152;2023-06-10T05:10:51;12.88;;;7.68;;
19543;SDS011;9917;51.256;7.152;2023-06-10T05:13:17;12.70;;;8.38;;
19543;SDS011;9917;51.256;7.152;2023-06-10T05:15:43;12.35;;;8.68;;
19543;SDS011;9917;51.256;7.152;2023-06-10T05:18:09;13.65;;;8.70;;
19543;SDS011;9917;51.256;7.152;2023-06-10T05:20:36;12.77;;;9.07;;
19543;SDS011;9917;51.256;7.152;2023-06-10T05:23:02;11.45;;;8.40;;
19543;SDS011;9917;51.256;7.152;2023-06-10T05:25:28;10.75;;;8.40;;
19543;SDS011;9917;51.256;7.152;2023-06-10T05:27:56;13.90;;;8.57;;
19543;SDS011;9917;51.256;7.152;2023-06-10T05:30:21;9.73;;;7.25;;
19543;SDS011;9917;51.256;7.152;2023-06-10T05:32:47;11.40;;;7.75;;
19543;SDS011;9917;51.256;7.152;2023-06-10T05:35:13;10.40;;;8.50;;
19543;SDS011;9917;51.256;7.152;2023-06-10T05:37:41;12.25;;;7.60;;
19543;SDS011;9917;51.256;7.152;2023-06-10T05:40:07;12.07;;;7.57;;
19543;SDS011;9917;51.256;7.152;2023-06-10T05:42:33;10.63;;;7.80;;
19543;SDS011;9917;51.256;7.152;2023-06-10T05:44:59;11.05;;;8.77;;
19543;SDS011;9917;51.256;7.152;2023-06-10T05:47:25;10.85;;;7.53;;
19543;SDS011;9917;51.256;7.152;2023-06-10T05:49:51;10.18;;;7.78;;
19543;SDS011;9917;51.256;7.152;2023-06-10T05:52:17;13.27;;;8.23;;
19543;SDS011;9917;51.256;7.152;2023-06-10T05:54:48;9.82;;;7.80;;
19543;SDS011;9917;51.256;7.152;2023-06-10T05:57:15;8.88;;;7.15;;
19543;SDS011;9917;51.256;7.152;2023-06-10T05:59:40;10.27;;;7.38;;
19543;SDS011;9917;51.256;7.152;2023-06-10T06:02:06;9.95;;;7.47;;
19543;SDS011;9917;51.256;7.152;2023-06-10T06:04:33;10.00;;;7.47;;
19543;SDS011;9917;51.256;7.152;2023-06-10T06:06:59;11.35;;;7.90;;
19543;SDS011;9917;51.256;7.152;2023-06-10T06:09:25;9.90;;;7.13;;
19543;SDS011;9917;51.256;7.152;2023-06-10T06:11:52;8.95;;;7.22;;
19543;SDS011;9917;51.256;7.152;2023-06-10T06:14:18;10.95;;;7.25;;
19543;SDS011;9917;51.256;7.152;2023-06-10T06:16:44;9.63;;;6.97;;
19543;SDS011;9917;51.256;7.152;2023-06-10T06:19:10;8.63;;;6.80;;
19543;SDS011;9917;51.256;7.152;2023-06-10T06:21:36;10.90;;;7.57;;
19543;SDS011;9917;51.256;7.152;2023-06-10T06:24:02;9.65;;;7.18;;
19543;SDS011;9917;51.256;7.152;2023-06-10T06:26:28;8.68;;;6.93;;
19543;SDS011;9917;51.256;7.152;2023-06-10T06:28:55;9.60;;;6.38;;
19543;SDS011;9917;51.256;7.152;2023-06-10T06:31:20;11.10;;;8.27;;
19543;SDS011;9917;51.256;7.152;2023-06-10T06:33:46;11.73;;;6.75;;
19543;SDS011;9917;51.256;7.152;2023-06-10T06:36:12;10.40;;;7.07;;
19543;SDS011;9917;51.256;7.152;2023-06-10T06:38:38;9.43;;;7.15;;
19543;SDS011;9917;51.256;7.152;2023-06-10T06:41:04;10.20;;;7.18;;
19543;SDS011;9917;51.256;7.152;2023-06-10T06:43:30;10.13;;;6.53;;
19543;SDS011;9917;51.256;7.152;2023-06-10T06:45:57;8.93;;;7.05;;
19543;SDS011;9917;51.256;7.152;2023-06-10T06:48:23;8.95;;;6.63;;
19543;SDS011;9917;51.256;7.152;2023-06-10T06:50:50;10.27;;;6.82;;
19543;SDS011;9917;51.256;7.152;2023-06-10T06:53:16;8.85;;;6.57;;
19543;SDS011;9917;51.256;7.152;2023-06-10T06:55:42;13.05;;;6.18;;
19543;SDS011;9917;51.256;7.152;2023-06-10T06:58:08;8.68;;;6.88;;
19543;SDS011;9917;51.256;7.152;2023-06-10T07:00:33;8.50;;;6.30;;
19543;SDS011;9917;51.256;7.152;2023-06-10T07:03:01;8.65;;;6.93;;
19543;SDS011;9917;51.256;7.152;2023-06-10T07:05:26;9.38;;;6.05;;
19543;SDS011;9917;51.256;7.152;2023-06-10T07:07:52;7.70;;;5.43;;
19543;SDS011;9917;51.256;7.152;2023-06-10T07:10:18;8.50;;;6.15;;
19543;SDS011;9917;51.256;7.152;2023-06-10T07:12:44;8.57;;;5.80;;
19543;SDS011;9917;51.256;7.152;2023-06-10T07:15:10;9.75;;;6.97;;
19543;SDS011;9917;51.256;7.152;2023-06-10T07:17:36;11.25;;;7.20;;
19543;SDS011;9917;51.256;7.152;2023-06-10T07:20:04;12.30;;;6.18;;
19543;SDS011;9917;51.256;7.152;2023-06-10T07:22:30;8.10;;;6.03;;
19543;SDS011;9917;51.256;7.152;2023-06-10T07:24:56;7.68;;;5.65;;
19543;SDS011;9917;51.256;7.152;2023-06-10T07:27:22;8.30;;;6.47;;
19543;SDS011;9917;51.256;7.152;2023-06-10T07:29:48;6.63;;;5.45;;
19543;SDS011;9917;51.256;7.152;2023-06-10T07:32:14;10.15;;;6.72;;
19543;SDS011;9917;51.256;7.152;2023-06-10T07:34:40;8.57;;;6.03;;
19543;SDS011;9917;51.256;7.152;2023-06-10T07:37:07;7.68;;;6.25;;
19543;SDS011;9917;51.256;7.152;2023-06-10T07:39:33;7.97;;;5.97;;
19543;SDS011;9917;51.256;7.152;2023-06-10T07:41:59;9.77;;;5.82;;
19543;SDS011;9917;51.256;7.152;2023-06-10T07:44:25;9.63;;;6.50;;
19543;SDS011;9917;51.256;7.152;2023-06-10T07:46:50;9.75;;;6.50;;
19543;SDS011;9917;51.256;7.152;2023-06-10T07:49:16;8.18;;;5.78;;
19543;SDS011;9917;51.256;7.152;2023-06-10T07:51:42;7.30;;;5.82;;
19543;SDS011;9917;51.256;7.152;2023-06-10T07:54:10;7.95;;;6.30;;
19543;SDS011;9917;51.256;7.152;2023-06-10T07:56:35;9.23;;;6.03;;
19543;SDS011;9917;51.256;7.152;2023-06-10T07:59:01;7.93;;;6.15;;
19543;SDS011;9917;51.256;7.152;2023-06-10T08:01:27;7.88;;;5.88;;
19543;SDS011;9917;51.256;7.152;2023-06-10T08:03:53;8.93;;;6.25;;
19543;SDS011;9917;51.256;7.152;2023-06-10T08:06:19;9.02;;;5.80;;
19543;SDS011;9917;51.256;7.152;2023-06-10T08:08:45;8.40;;;5.80;;
19543;SDS011;9917;51.256;7.152;2023-06-10T08:11:12;13.07;;;6.95;;
19543;SDS011;9917;51.256;7.152;2023-06-10T08:13:38;9.00;;;5.95;;
19543;SDS011;9917;51.256;7.152;2023-06-10T08:16:04;8.32;;;6.03;;
19543;SDS011;9917;51.256;7.152;2023-06-10T08:18:30;7.20;;;5.35;;
19543;SDS011;9917;51.256;7.152;2023-06-10T08:20:56;7.80;;;6.13;;
19543;SDS011;9917;51.256;7.152;2023-06-10T08:23:22;7.70;;;5.93;;
19543;SDS011;9917;51.256;7.152;2023-06-10T08:25:48;9.65;;;6.43;;
19543;SDS011;9917;51.256;7.152;2023-06-10T08:28:15;8.63;;;5.65;;
19543;SDS011;9917;51.256;7.152;2023-06-10T08:30:41;7.50;;;5.75;;
19543;SDS011;9917;51.256;7.152;2023-06-10T08:33:06;7.30;;;5.70;;
19543;SDS011;9917;51.256;7.152;2023-06-10T08:35:32;11.52;;;6.57;;
19543;SDS011;9917;51.256;7.152;2023-06-10T08:37:58;6.05;;;5.18;;
19543;SDS011;9917;51.256;7.152;2023-06-10T08:40:24;9.68;;;5.53;;
19543;SDS011;9917;51.256;7.152;2023-06-10T08:42:52;6.93;;;4.80;;
19543;SDS011;9917;51.256;7.152;2023-06-10T08:45:31;11.52;;;4.80;;
19543;SDS011;9917;51.256;7.152;2023-06-10T08:48:00;8.43;;;5.15;;
19543;SDS011;9917;51.256;7.152;2023-06-10T08:50:27;10.13;;;5.47;;
19543;SDS011;9917;51.256;7.152;2023-06-10T08:52:54;6.40;;;5.18;;
19543;SDS011;9917;51.256;7.152;2023-06-10T08:55:23;7.78;;;4.85;;
19543;SDS011;9917;51.256;7.152;2023-06-10T08:57:54;7.82;;;5.00;;
19543;SDS011;9917;51.256;7.152;2023-06-10T09:00:20;7.00;;;4.50;;
19543;SDS011;9917;51.256;7.152;2023-06-10T09:02:48;6.05;;;4.68;;
19543;SDS011;9917;51.256;7.152;2023-06-10T09:05:15;7.25;;;4.80;;
19543;SDS011;9917;51.256;7.152;2023-06-10T09:07:41;7.60;;;4.05;;
19543;SDS011;9917;51.256;7.152;2023-06-10T09:10:10;8.35;;;5.63;;
19543;SDS011;9917;51.256;7.152;2023-06-10T09:12:37;9.05;;;4.63;;
19543;SDS011;9917;51.256;7.152;2023-06-10T09:15:03;9.10;;;4.82;;
19543;SDS011;9917;51.256;7.152;2023-06-10T09:17:29;7.25;;;4.90;;
19543;SDS011;9917;51.256;7.152;2023-06-10T09:19:56;5.75;;;4.55;;
19543;SDS011;9917;51.256;7.152;2023-06-10T09:22:22;5.70;;;4.70;;
19543;SDS011;9917;51.256;7.152;2023-06-10T09:24:48;6.43;;;4.43;;
19543;SDS011;9917;51.256;7.152;2023-06-10T09:27:14;5.47;;;4.15;;
19543;SDS011;9917;51.256;7.152;2023-06-10T09:29:46;7.53;;;4.30;;
19543;SDS011;9917;51.256;7.152;2023-06-10T09:32:16;5.68;;;4.15;;
19543;SDS011;9917;51.256;7.152;2023-06-10T09:34:42;7.55;;;4.35;;
19543;SDS011;9917;51.256;7.152;2023-06-10T09:37:10;4.43;;;3.90;;
19543;SDS011;9917;51.256;7.152;2023-06-10T09:39:36;5.03;;;3.78;;
19543;SDS011;9917;51.256;7.152;2023-06-10T09:42:02;6.43;;;3.80;;
19543;SDS011;9917;51.256;7.152;2023-06-10T09:44:41;7.75;;;3.80;;
19543;SDS011;9917;51.256;7.152;2023-06-10T09:47:06;5.57;;;3.78;;
19543;SDS011;9917;51.256;7.152;2023-06-10T09:49:32;4.90;;;3.97;;
19543;SDS011;9917;51.256;7.152;2023-06-10T09:51:58;5.68;;;3.83;;
19543;SDS011;9917;51.256;7.152;2023-06-10T09:54:25;5.35;;;4.20;;
19543;SDS011;9917;51.256;7.152;2023-06-10T09:56:57;5.78;;;3.97;;
19543;SDS011;9917;51.256;7.152;2023-06-10T09:59:28;4.75;;;3.50;;
19543;SDS011;9917;51.256;7.152;2023-06-10T10:01:57;5.30;;;3.35;;
19543;SDS011;9917;51.256;7.152;2023-06-10T10:04:23;9.00;;;3.30;;
19543;SDS011;9917;51.256;7.152;2023-06-10T10:06:50;6.32;;;3.33;;
19543;SDS011;9917;51.256;7.152;2023-06-10T10:09:16;7.50;;;4.18;;
19543;SDS011;9917;51.256;7.152;2023-06-10T10:11:43;4.88;;;3.67;;
19543;SDS011;9917;51.256;7.152;2023-06-10T10:14:09;5.97;;;4.30;;
19543;SDS011;9917;51.256;7.152;2023-06-10T10:16:36;6.38;;;4.45;;
19543;SDS011;9917;51.256;7.152;2023-06-10T10:19:05;5.40;;;3.47;;
19543;SDS011;9917;51.256;7.152;2023-06-10T10:21:37;5.72;;;3.35;;
19543;SDS011;9917;51.256;7.152;2023-06-10T10:24:09;7.43;;;4.18;;
19543;SDS011;9917;51.256;7.152;2023-06-10T10:26:41;5.80;;;3.80;;
19543;SDS011;9917;51.256;7.152;2023-06-10T10:29:10;6.18;;;3.78;;
19543;SDS011;9917;51.256;7.152;2023-06-10T10:31:39;8.45;;;5.50;;
19543;SDS011;9917;51.256;7.152;2023-06-10T10:34:09;6.00;;;4.57;;
19543;SDS011;9917;51.256;7.152;2023-06-10T10:36:40;7.13;;;5.07;;
19543;SDS011;9917;51.256;7.152;2023-06-10T10:39:06;7.65;;;4.15;;
19543;SDS011;9917;51.256;7.152;2023-06-10T10:41:32;6.78;;;4.97;;
19543;SDS011;9917;51.256;7.152;2023-06-10T10:44:01;5.78;;;3.72;;
19543;SDS011;9917;51.256;7.152;2023-06-10T10:46:29;4.88;;;4.05;;
19543;SDS011;9917;51.256;7.152;2023-06-10T10:48:55;5.22;;;3.42;;
19543;SDS011;9917;51.256;7.152;2023-06-10T10:51:22;6.95;;;3.67;;
19543;SDS011;9917;51.256;7.152;2023-06-10T10:56:35;8.07;;;3.80;;
19543;SDS011;9917;51.256;7.152;2023-06-10T10:59:02;6.00;;;3.40;;
19543;SDS011;9917;51.256;7.152;2023-06-10T11:01:31;8.68;;;4.60;;
19543;SDS011;9917;51.256;7.152;2023-06-10T11:04:06;4.75;;;4.00;;
19543;SDS011;9917;51.256;7.152;2023-06-10T11:06:32;6.53;;;3.45;;
19543;SDS011;9917;51.256;7.152;2023-06-10T11:08:58;5.85;;;3.20;;
19543;SDS011;9917;51.256;7.152;2023-06-10T11:11:24;5.72;;;3.53;;
19543;SDS011;9917;51.256;7.152;2023-06-10T11:13:58;6.10;;;4.18;;
19543;SDS011;9917;51.256;7.152;2023-06-10T11:16:29;5.50;;;3.70;;
19543;SDS011;9917;51.256;7.152;2023-06-10T11:19:03;6.75;;;3.40;;
19543;SDS011;9917;51.256;7.152;2023-06-10T11:21:29;7.03;;;3.97;;
19543;SDS011;9917;51.256;7.152;2023-06-10T11:23:57;4.97;;;3.83;;
19543;SDS011;9917;51.256;7.152;2023-06-10T11:26:29;6.07;;;3.75;;
19543;SDS011;9917;51.256;7.152;2023-06-10T11:29:05;5.25;;;4.22;;
19543;SDS011;9917;51.256;7.152;2023-06-10T11:31:35;8.73;;;4.15;;
19543;SDS011;9917;51.256;7.152;2023-06-10T11:34:04;6.25;;;3.80;;
19543;SDS011;9917;51.256;7.152;2023-06-10T11:36:33;6.95;;;4.28;;
19543;SDS011;9917;51.256;7.152;2023-06-10T11:39:01;6.65;;;4.20;;
19543;SDS011;9917;51.256;7.152;2023-06-10T11:41:28;7.53;;;4.70;;
19543;SDS011;9917;51.256;7.152;2023-06-10T11:43:55;6.90;;;4.22;;
19543;SDS011;9917;51.256;7.152;2023-06-10T11:46:21;7.35;;;4.95;;
19543;SDS011;9917;51.256;7.152;2023-06-10T11:48:52;6.97;;;4.40;;
19543;SDS011;9917;51.256;7.152;2023-06-10T11:51:19;8.65;;;4.97;;
19543;SDS011;9917;51.256;7.152;2023-06-10T11:53:45;6.40;;;4.80;;
19543;SDS011;9917;51.256;7.152;2023-06-10T11:56:11;6.95;;;5.35;;
19543;SDS011;9917;51.256;7.152;2023-06-10T11:58:36;7.47;;;4.13;;
19543;SDS011;9917;51.256;7.152;2023-06-10T12:01:04;5.80;;;4.30;;
19543;SDS011;9917;51.256;7.152;2023-06-10T12:03:35;6.65;;;4.80;;
19543;SDS011;9917;51.256;7.152;2023-06-10T12:06:03;8.23;;;4.60;;
19543;SDS011;9917;51.256;7.152;2023-06-10T12:08:30;7.68;;;4.03;;
19543;SDS011;9917;51.256;7.152;2023-06-10T12:10:57;6.78;;;3.72;;
19543;SDS011;9917;51.256;7.152;2023-06-10T12:13:23;9.35;;;4.10;;
19543;SDS011;9917;51.256;7.152;2023-06-10T12:15:49;9.25;;;3.90;;
19543;SDS011;9917;51.256;7.152;2023-06-10T12:18:18;9.30;;;4.75;;
19543;SDS011;9917;51.256;7.152;2023-06-10T12:20:44;4.35;;;3.95;;
19543;SDS011;9917;51.256;7.152;2023-06-10T12:23:11;8.70;;;4.50;;
19543;SDS011;9917;51.256;7.152;2023-06-10T12:25:38;5.28;;;4.57;;
19543;SDS011;9917;51.256;7.152;2023-06-10T12:28:04;8.43;;;5.00;;
19543;SDS011;9917;51.256;7.152;2023-06-10T12:30:30;5.07;;;4.50;;
19543;SDS011;9917;51.256;7.152;2023-06-10T12:32:57;6.90;;;4.80;;
19543;SDS011;9917;51.256;7.152;2023-06-10T12:35:24;6.80;;;4.20;;
19543;SDS011;9917;51.256;7.152;2023-06-10T12:37:57;8.55;;;3.85;;
19543;SDS011;9917;51.256;7.152;2023-06-10T12:40:29;5.63;;;3.78;;
19543;SDS011;9917;51.256;7.152;2023-06-10T12:42:57;10.23;;;3.67;;
19543;SDS011;9917;51.256;7.152;2023-06-10T12:45:26;3.92;;;3.22;;
19543;SDS011;9917;51.256;7.152;2023-06-10T12:47:53;6.35;;;3.63;;
19543;SDS011;9917;51.256;7.152;2023-06-10T12:50:29;5.53;;;3.85;;
19543;SDS011;9917;51.256;7.152;2023-06-10T12:52:55;6.88;;;3.85;;
19543;SDS011;9917;51.256;7.152;2023-06-10T12:55:21;9.02;;;4.80;;
19543;SDS011;9917;51.256;7.152;2023-06-10T12:57:51;6.05;;;3.80;;
19543;SDS011;9917;51.256;7.152;2023-06-10T13:00:17;3.90;;;3.17;;
19543;SDS011;9917;51.256;7.152;2023-06-10T13:02:43;5.60;;;3.45;;
19543;SDS011;9917;51.256;7.152;2023-06-10T13:05:09;5.40;;;3.72;;
19543;SDS011;9917;51.256;7.152;2023-06-10T13:07:34;5.50;;;3.88;;
19543;SDS011;9917;51.256;7.152;2023-06-10T13:10:00;6.57;;;3.78;;
19543;SDS011;9917;51.256;7.152;2023-06-10T13:12:26;6.38;;;3.53;;
19543;SDS011;9917;51.256;7.152;2023-06-10T13:14:54;5.63;;;3.88;;
19543;SDS011;9917;51.256;7.152;2023-06-10T13:17:19;4.22;;;3.25;;
19543;SDS011;9917;51.256;7.152;2023-06-10T13:19:45;5.70;;;3.63;;
19543;SDS011;9917;51.256;7.152;2023-06-10T13:22:11;7.57;;;3.40;;
19543;SDS011;9917;51.256;7.152;2023-06-10T13:24:38;6.90;;;3.67;;
19543;SDS011;9917;51.256;7.152;2023-06-10T13:27:04;4.60;;;3.80;;
19543;SDS011;9917;51.256;7.152;2023-06-10T13:29:30;5.10;;;3.65;;
19543;SDS011;9917;51.256;7.152;2023-06-10T13:31:57;5.25;;;3.63;;
19543;SDS011;9917;51.256;7.152;2023-06-10T13:34:23;7.03;;;4.20;;
19543;SDS011;9917;51.256;7.152;2023-06-10T13:36:48;4.47;;;3.97;;
19543;SDS011;9917;51.256;7.152;2023-06-10T13:39:14;9.02;;;4.43;;
19543;SDS011;9917;51.256;7.152;2023-06-10T13:41:40;5.85;;;4.22;;
19543;SDS011;9917;51.256;7.152;2023-06-10T13:44:06;7.32;;;5.10;;
19543;SDS011;9917;51.256;7.152;2023-06-10T13:46:32;9.27;;;5.18;;
19543;SDS011;9917;51.256;7.152;2023-06-10T13:48:59;5.40;;;4.10;;
19543;SDS011;9917;51.256;7.152;2023-06-10T13:51:25;6.68;;;4.72;;
19543;SDS011;9917;51.256;7.152;2023-06-10T13:53:50;8.23;;;5.70;;
19543;SDS011;9917;51.256;7.152;2023-06-10T13:56:16;8.95;;;4.90;;
19543;SDS011;9917;51.256;7.152;2023-06-10T13:58:42;7.60;;;4.90;;
19543;SDS011;9917;51.256;7.152;2023-06-10T14:01:11;8.32;;;5.50;;
19543;SDS011;9917;51.256;7.152;2023-06-10T14:03:37;8.00;;;5.53;;
19543;SDS011;9917;51.256;7.152;2023-06-10T14:06:04;10.48;;;5.03;;
19543;SDS011;9917;51.256;7.152;2023-06-10T14:08:30;7.85;;;4.68;;
19543;SDS011;9917;51.256;7.152;2023-06-10T14:10:55;7.75;;;4.82;;
19543;SDS011;9917;51.256;7.152;2023-06-10T14:13:22;9.98;;;6.38;;
19543;SDS011;9917;51.256;7.152;2023-06-10T14:15:48;10.82;;;4.90;;
19543;SDS011;9917;51.256;7.152;2023-06-10T14:18:14;13.60;;;5.53;;
19543;SDS011;9917;51.256;7.152;2023-06-10T14:20:40;13.85;;;5.85;;
19543;SDS011;9917;51.256;7.152;2023-06-10T14:23:07;5.72;;;4.82;;
19543;SDS011;9917;51.256;7.152;2023-06-10T14:25:33;5.88;;;4.40;;
19543;SDS011;9917;51.256;7.152;2023-06-10T14:27:58;7.30;;;4.40;;
19543;SDS011;9917;51.256;7.152;2023-06-10T14:30:24;8.90;;;4.43;;
19543;SDS011;9917;51.256;7.152;2023-06-10T14:32:50;7.63;;;4.80;;
19543;SDS011;9917;51.256;7.152;2023-06-10T14:35:16;5.93;;;4.28;;
19543;SDS011;9917;51.256;7.152;2023-06-10T14:37:41;7.30;;;4.10;;
19543;SDS011;9917;51.256;7.152;2023-06-10T14:40:09;8.43;;;4.63;;
19543;SDS011;9917;51.256;7.152;2023-06-10T14:42:35;6.80;;;4.13;;
19543;SDS011;9917;51.256;7.152;2023-06-10T14:45:01;8.88;;;4.55;;
19543;SDS011;9917;51.256;7.152;2023-06-10T14:47:26;5.53;;;4.32;;
19543;SDS011;9917;51.256;7.152;2023-06-10T14:49:52;9.30;;;5.13;;
19543;SDS011;9917;51.256;7.152;2023-06-10T14:52:18;6.63;;;5.05;;
19543;SDS011;9917;51.256;7.152;2023-06-10T14:54:44;7.78;;;5.65;;